This is the latest recevied weather packets stored in our database for station/object OE-11307. If no packets are shown the sender has not sent any weather packets the latest 10 day(s).
| Time | Temp. | Humidity | Pressure | Rain* | Wind** | Luminosity | Snow |
|---|---|---|---|---|---|---|---|
| 1787938887 | 13.33° C | 93% | 852.2 hPa | 0.25 mm | - | 6 W/m² | - |
| 1787938514 | 13.33° C | 93% | 852 hPa | 0.25 mm | - | 6 W/m² | - |
| 1787937914 | 13.89° C | 93% | 852 hPa | 0.25 mm | - | 6 W/m² | - |
| 1787937087 | 13.89° C | 92% | 851.8 hPa | 0.25 mm | - | 6 W/m² | - |
| 1787936713 | 14.44° C | 93% | 851.8 hPa | 0.25 mm | - | 6 W/m² | - |
| 1787936113 | 15° C | 93% | 851.9 hPa | 0.25 mm | - | 6 W/m² | - |
| 1787935287 | 15.56° C | 92% | 851.7 hPa | 0 mm | - | 6 W/m² | - |
| 1787934914 | 16.11° C | 89% | 851.7 hPa | 0 mm | - | 6 W/m² | - |
| 1787934314 | 16.11° C | 89% | 851.4 hPa | 0 mm | - | 6 W/m² | - |
| 1787933487 | 16.67° C | 89% | 851.4 hPa | 0 mm | - | 19 W/m² | - |
| 1787933114 | 16.67° C | 89% | 851.4 hPa | 0 mm | - | 57 W/m² | - |
| 1787932514 | 17.22° C | 88% | 851.4 hPa | 0 mm | - | 101 W/m² | - |
| 1787931687 | 17.22° C | 88% | 851.3 hPa | 0 mm | - | 69 W/m² | - |
| 1787931314 | 18.33° C | 86% | 851.2 hPa | 0 mm | - | 88 W/m² | - |
| 1787930714 | 18.33° C | 83% | 851.1 hPa | 0 mm | - | 258 W/m² | - |
| 1787929886 | 18.33° C | 85% | 851.3 hPa | 0 mm | - | 290 W/m² | - |
| 1787929513 | 17.78° C | 85% | 851.2 hPa | 0 mm | - | 277 W/m² | - |
| 1787928913 | 17.78° C | 86% | 851.5 hPa | 0 mm | - | 170 W/m² | - |
| 1787928087 | 17.78° C | 89% | 851.6 hPa | 0 mm | - | 120 W/m² | - |
| 1787927713 | 17.78° C | 91% | 851.7 hPa | 0 mm | - | 107 W/m² | - |
| 1787927113 | 17.78° C | 91% | 851.5 hPa | 0 mm | - | 95 W/m² | - |
| 1787926287 | 18.33° C | 89% | 851.6 hPa | 0 mm | - | 139 W/m² | - |
| 1787925914 | 19.44° C | 82% | 851.4 hPa | 0 mm | - | 252 W/m² | - |
| 1787925314 | 20° C | 81% | 851.3 hPa | 0 mm | - | 391 W/m² | - |
| 1787924487 | 20° C | 82% | 851.4 hPa | 0.51 mm | - | 410 W/m² | - |
* Rain latest hour (hover to see other rain measurements)
** Current wind speed in m/s (hover to see current wind gust speed)